Time;durP1;ratioP1;P1;durP2;ratioP2;P2;SDS_P1;SDS_P2;PMS_P1;PMS_P2;Temp;Humidity;BMP_temperature;BMP_pressure;BME280_temperature;BME280_humidity;BME280_pressure;Samples;Min_cycle;Max_cycle;Signal;HPM_P1;HPM_P2
2021/05/14 00:00:04;;;;;;;5.40;2.60;;;;;;;;;;10249577;28;20066;-65
2021/05/14 00:05:08;;;;;;;7.47;2.47;;;;;;;;;;10258086;28;20045;-66
2021/05/14 00:10:06;;;;;;;16.98;3.45;;;;;;;;;;10260257;28;20915;-65
2021/05/14 00:15:04;;;;;;;16.48;2.97;;;;;;;;;;10251591;28;20424;-65
2021/05/14 00:20:03;;;;;;;8.60;3.00;;;;;;;;;;10261874;28;20401;-66
2021/05/14 00:25:00;;;;;;;7.28;2.72;;;;;;;;;;10256878;28;20450;-67
2021/05/14 00:29:58;;;;;;;11.90;2.50;;;;;;;;;;10231184;28;20116;-66
2021/05/14 00:34:55;;;;;;;8.30;2.07;;;;;;;;;;10239316;28;20105;-65
2021/05/14 00:39:53;;;;;;;9.37;2.13;;;;;;;;;;10252129;28;20467;-66
2021/05/14 00:44:51;;;;;;;11.60;3.50;;;;;;;;;;10249608;28;20030;-65
2021/05/14 00:49:48;;;;;;;6.77;1.87;;;;;;;;;;10255940;28;20522;-66
2021/05/14 00:54:46;;;;;;;5.87;1.80;;;;;;;;;;10226325;28;20515;-65
2021/05/14 00:59:45;;;;;;;7.88;2.40;;;;;;;;;;10245450;28;20030;-66
2021/05/14 01:04:43;;;;;;;8.57;2.92;;;;;;;;;;10245139;28;20026;-65
2021/05/14 01:09:41;;;;;;;14.43;2.60;;;;;;;;;;10248715;28;20529;-65
2021/05/14 01:14:38;;;;;;;5.25;2.03;;;;;;;;;;10255975;28;20372;-66
2021/05/14 01:19:35;;;;;;;6.10;1.50;;;;;;;;;;10256376;28;20042;-66
2021/05/14 01:24:33;;;;;;;2.47;1.03;;;;;;;;;;10259413;28;20594;-66
2021/05/14 01:29:31;;;;;;;11.30;2.33;;;;;;;;;;10254428;28;20455;-66
2021/05/14 01:34:28;;;;;;;5.40;1.90;;;;;;;;;;10250391;28;20049;-65
2021/05/14 01:39:26;;;;;;;5.33;2.27;;;;;;;;;;10249520;28;20120;-64
2021/05/14 01:44:24;;;;;;;8.73;2.00;;;;;;;;;;10260940;28;20145;-64
2021/05/14 01:49:21;;;;;;;12.83;2.50;;;;;;;;;;10265478;28;20038;-65
2021/05/14 01:54:19;;;;;;;3.83;1.73;;;;;;;;;;10261730;28;20176;-66
2021/05/14 01:59:16;;;;;;;5.13;1.77;;;;;;;;;;10245547;28;20030;-65
2021/05/14 02:04:14;;;;;;;4.10;2.47;;;;;;;;;;10255509;28;20124;-67
2021/05/14 02:09:11;;;;;;;9.63;1.97;;;;;;;;;;10260770;28;20041;-66
2021/05/14 02:14:08;;;;;;;0.70;0.70;;;;;;;;;;10268957;28;20030;-68
2021/05/14 02:19:06;;;;;;;5.87;1.90;;;;;;;;;;10248860;28;20065;-64
2021/05/14 02:24:03;;;;;;;4.00;1.43;;;;;;;;;;10245715;28;20125;-66
2021/05/14 02:29:01;;;;;;;4.30;2.00;;;;;;;;;;10272244;28;20363;-64
2021/05/14 02:33:59;;;;;;;6.03;1.08;;;;;;;;;;10253599;28;20581;-64
2021/05/14 02:38:56;;;;;;;4.20;0.97;;;;;;;;;;10257253;28;20152;-65
2021/05/14 02:43:54;;;;;;;5.87;1.43;;;;;;;;;;10268632;28;20125;-66
2021/05/14 02:48:51;;;;;;;4.00;1.60;;;;;;;;;;10263140;28;20091;-66
2021/05/14 02:53:49;;;;;;;5.30;1.60;;;;;;;;;;10265597;28;20375;-64
2021/05/14 02:58:46;;;;;;;8.63;2.20;;;;;;;;;;10269396;28;20289;-65
2021/05/14 03:03:43;;;;;;;5.63;2.00;;;;;;;;;;10284673;28;20039;-66
2021/05/14 03:08:41;;;;;;;2.70;0.83;;;;;;;;;;10289790;28;20090;-64
2021/05/14 03:13:38;;;;;;;2.73;2.00;;;;;;;;;;10262600;28;20022;-65
2021/05/14 03:18:36;;;;;;;3.50;2.70;;;;;;;;;;10284259;28;20045;-65
2021/05/14 03:23:33;;;;;;;1.80;0.70;;;;;;;;;;10284931;28;20044;-64
2021/05/14 03:28:30;;;;;;;5.37;1.53;;;;;;;;;;10269944;28;20038;-65
2021/05/14 03:33:29;;;;;;;0.87;0.87;;;;;;;;;;10276640;28;20164;-65
2021/05/14 03:38:33;;;;;;;7.75;2.45;;;;;;;;;;10251732;28;20532;-66
2021/05/14 03:43:30;;;;;;;13.30;2.60;;;;;;;;;;10225121;28;20038;-67
2021/05/14 03:48:28;;;;;;;7.73;2.50;;;;;;;;;;10242176;28;20041;-66
2021/05/14 03:53:26;;;;;;;7.97;2.40;;;;;;;;;;10245918;28;20406;-66
2021/05/14 03:58:24;;;;;;;7.80;2.97;;;;;;;;;;10236936;28;20040;-66
2021/05/14 04:03:22;;;;;;;11.63;2.97;;;;;;;;;;10252604;28;20037;-67
2021/05/14 04:08:19;;;;;;;6.22;2.17;;;;;;;;;;10246750;28;20922;-67
2021/05/14 04:18:37;;;;;;;7.38;2.20;;;;;;;;;;10220396;28;20034;-67
2021/05/14 04:23:34;;;;;;;6.35;2.90;;;;;;;;;;10237167;28;20475;-66
2021/05/14 04:28:32;;;;;;;3.50;1.90;;;;;;;;;;10246534;28;20364;-67
2021/05/14 04:33:29;;;;;;;5.53;2.83;;;;;;;;;;10239134;28;20038;-65
2021/05/14 04:38:27;;;;;;;5.93;2.27;;;;;;;;;;10245550;28;20061;-66
2021/05/14 04:43:24;;;;;;;8.47;2.50;;;;;;;;;;10241797;28;20132;-65
2021/05/14 04:48:21;;;;;;;3.23;1.90;;;;;;;;;;10224493;28;20380;-66
2021/05/14 04:53:21;;;;;;;7.93;2.57;;;;;;;;;;10235914;28;20055;-66
2021/05/14 04:58:18;;;;;;;7.93;3.00;;;;;;;;;;10242490;28;20042;-67
2021/05/14 05:03:16;;;;;;;5.27;2.50;;;;;;;;;;10242464;28;20547;-68
2021/05/14 05:08:13;;;;;;;4.43;1.97;;;;;;;;;;10246184;28;20031;-65
2021/05/14 05:13:11;;;;;;;7.07;2.20;;;;;;;;;;10256346;28;21132;-66
2021/05/14 05:18:08;;;;;;;6.27;2.27;;;;;;;;;;10248511;28;20026;-65
2021/05/14 05:23:06;;;;;;;4.23;2.30;;;;;;;;;;10224817;28;20040;-66
2021/05/14 05:28:03;;;;;;;7.10;1.90;;;;;;;;;;10251561;28;20076;-66
2021/05/14 05:33:01;;;;;;;7.57;2.20;;;;;;;;;;10240379;28;20045;-66
2021/05/14 05:37:58;;;;;;;8.70;3.00;;;;;;;;;;10233904;28;20045;-66
2021/05/14 05:42:55;;;;;;;4.70;2.07;;;;;;;;;;10258024;28;20045;-65
2021/05/14 05:47:53;;;;;;;6.63;2.00;;;;;;;;;;10245682;28;20693;-65
2021/05/14 05:52:54;;;;;;;4.93;1.70;;;;;;;;;;10241668;28;21399;-65
2021/05/14 05:57:51;;;;;;;9.88;2.47;;;;;;;;;;10242543;28;20125;-66
2021/05/14 06:02:48;;;;;;;8.27;2.37;;;;;;;;;;10242172;28;20136;-66
2021/05/14 06:07:46;;;;;;;9.73;2.40;;;;;;;;;;10257510;28;20505;-65
2021/05/14 06:12:43;;;;;;;6.83;2.43;;;;;;;;;;10254201;28;20428;-66
2021/05/14 06:17:42;;;;;;;11.23;2.47;;;;;;;;;;10247368;28;20091;-66
2021/05/14 06:22:40;;;;;;;7.45;3.05;;;;;;;;;;10255946;28;20069;-65
2021/05/14 06:27:37;;;;;;;10.43;2.37;;;;;;;;;;10250836;28;20042;-66
2021/05/14 06:32:35;;;;;;;3.83;1.87;;;;;;;;;;10227660;28;20041;-66
2021/05/14 06:37:36;;;;;;;14.43;2.30;;;;;;;;;;10235941;28;20034;-65
2021/05/14 06:42:34;;;;;;;6.65;3.67;;;;;;;;;;10248894;28;20137;-67
2021/05/14 06:47:32;;;;;;;4.38;1.98;;;;;;;;;;10224946;28;20042;-65
2021/05/14 06:52:30;;;;;;;5.20;1.47;;;;;;;;;;10250804;28;20032;-64
2021/05/14 06:57:27;;;;;;;6.20;2.37;;;;;;;;;;10255097;28;20172;-64
2021/05/14 07:02:24;;;;;;;7.93;2.40;;;;;;;;;;10249924;28;20042;-65
2021/05/14 07:07:22;;;;;;;4.03;2.17;;;;;;;;;;10257143;28;20032;-65
2021/05/14 07:12:19;;;;;;;13.87;2.83;;;;;;;;;;10249172;28;20069;-66
2021/05/14 07:17:17;;;;;;;3.67;2.17;;;;;;;;;;10220764;28;20041;-66
2021/05/14 07:22:14;;;;;;;3.87;1.57;;;;;;;;;;10241605;28;20109;-65
2021/05/14 07:27:13;;;;;;;5.20;1.73;;;;;;;;;;10247646;28;20176;-65
2021/05/14 07:32:12;;;;;;;5.32;1.98;;;;;;;;;;10227988;28;20684;-64
2021/05/14 07:37:09;;;;;;;9.57;2.08;;;;;;;;;;10224419;28;20403;-65
2021/05/14 07:42:07;;;;;;;1.37;1.07;;;;;;;;;;10223687;28;20042;-65
2021/05/14 07:47:04;;;;;;;7.27;3.30;;;;;;;;;;10241564;28;20496;-65
2021/05/14 07:52:02;;;;;;;2.00;1.43;;;;;;;;;;10250498;28;20594;-64
2021/05/14 07:56:59;;;;;;;3.13;1.13;;;;;;;;;;10252618;28;20061;-66
2021/05/14 08:01:57;;;;;;;4.33;2.17;;;;;;;;;;10234496;28;21047;-65
2021/05/14 08:06:54;;;;;;;9.83;2.87;;;;;;;;;;10241526;28;20042;-65
2021/05/14 08:11:52;;;;;;;2.73;1.63;;;;;;;;;;10244743;28;20037;-66
2021/05/14 08:16:50;;;;;;;8.83;1.13;;;;;;;;;;10232124;28;20133;-64
2021/05/14 08:21:47;;;;;;;7.28;1.98;;;;;;;;;;10244318;28;20748;-65
2021/05/14 08:26:45;;;;;;;4.27;2.90;;;;;;;;;;10237803;28;20542;-66
2021/05/14 08:31:42;;;;;;;2.27;2.07;;;;;;;;;;10231713;28;20034;-65
2021/05/14 08:36:40;;;;;;;3.70;2.17;;;;;;;;;;10250612;28;20033;-65
2021/05/14 08:41:38;;;;;;;8.57;2.67;;;;;;;;;;10241847;28;20149;-65
2021/05/14 08:46:36;;;;;;;7.43;2.80;;;;;;;;;;10247717;28;20335;-65
2021/05/14 08:51:34;;;;;;;7.05;2.33;;;;;;;;;;10246078;28;20030;-65
2021/05/14 08:56:32;;;;;;;7.83;2.47;;;;;;;;;;10245089;28;20030;-65
2021/05/14 09:01:29;;;;;;;6.03;2.67;;;;;;;;;;10249595;28;20125;-65
2021/05/14 09:06:37;;;;;;;11.23;2.90;;;;;;;;;;10249704;28;20113;-66
2021/05/14 09:11:38;;;;;;;9.82;2.25;;;;;;;;;;10236578;28;20522;-65
2021/05/14 09:16:36;;;;;;;10.40;2.05;;;;;;;;;;10247315;28;20042;-66
2021/05/14 09:21:34;;;;;;;5.03;2.55;;;;;;;;;;10245391;28;20096;-65
2021/05/14 09:26:32;;;;;;;10.83;2.83;;;;;;;;;;10255140;28;20050;-65
2021/05/14 09:31:30;;;;;;;5.68;2.90;;;;;;;;;;10248722;28;20029;-65
2021/05/14 09:36:34;;;;;;;1.77;1.50;;;;;;;;;;10249381;28;20050;-65
2021/05/14 09:41:31;;;;;;;3.85;2.00;;;;;;;;;;10245691;28;20038;-65
2021/05/14 09:46:32;;;;;;;3.50;1.57;;;;;;;;;;10248508;28;20038;-65
2021/05/14 09:51:30;;;;;;;8.77;1.40;;;;;;;;;;10247572;28;20038;-64
2021/05/14 09:56:30;;;;;;;5.47;2.15;;;;;;;;;;10245850;28;20068;-66
2021/05/14 10:01:29;;;;;;;5.57;2.40;;;;;;;;;;10240479;28;20061;-65
2021/05/14 10:06:26;;;;;;;4.68;1.77;;;;;;;;;;10254526;28;20045;-68
2021/05/14 10:11:24;;;;;;;4.70;2.27;;;;;;;;;;10246666;28;20034;-66
2021/05/14 10:16:21;;;;;;;3.97;2.27;;;;;;;;;;10253408;28;20037;-65
2021/05/14 10:21:20;;;;;;;8.63;2.60;;;;;;;;;;10252828;28;20454;-67
2021/05/14 10:26:17;;;;;;;;;;;;;;;;;;10256554;28;20030;-66
2021/05/14 10:31:17;;;;;;;4.88;2.88;;;;;;;;;;10242333;28;20012;-66
2021/05/14 10:36:14;;;;;;;1.63;1.52;;;;;;;;;;10229842;28;20459;-65
2021/05/14 10:41:30;;;;;;;4.27;2.53;;;;;;;;;;10247678;28;20045;-66
2021/05/14 10:46:29;;;;;;;4.10;1.52;;;;;;;;;;10229050;28;21426;-65
2021/05/14 10:51:45;;;;;;;5.97;2.30;;;;;;;;;;10235352;28;20125;-67
2021/05/14 10:56:48;;;;;;;6.85;2.85;;;;;;;;;;10243064;28;20041;-66
2021/05/14 11:01:45;;;;;;;6.25;1.42;;;;;;;;;;10250883;28;20042;-66
2021/05/14 11:06:48;;;;;;;2.03;1.27;;;;;;;;;;10238254;28;20038;-66
2021/05/14 11:12:02;;;;;;;7.88;3.20;;;;;;;;;;10254039;28;20050;-66
2021/05/14 11:17:00;;;;;;;4.05;2.42;;;;;;;;;;10230919;28;20034;-66
2021/05/14 11:22:00;;;;;;;26.10;1.70;;;;;;;;;;10244797;28;20511;-65
2021/05/14 11:26:58;;;;;;;4.00;1.73;;;;;;;;;;10252530;28;20113;-65
2021/05/14 11:31:55;;;;;;;1.85;1.40;;;;;;;;;;10233161;28;20038;-65
2021/05/14 11:36:53;;;;;;;1.80;1.13;;;;;;;;;;10245445;28;20659;-65
2021/05/14 11:41:57;;;;;;;1.80;1.63;;;;;;;;;;10252318;28;20050;-65
2021/05/14 11:46:56;;;;;;;11.10;2.53;;;;;;;;;;10211854;28;20595;-66
2021/05/14 11:51:55;;;;;;;2.38;1.65;;;;;;;;;;10238758;28;20136;-66
2021/05/14 11:56:52;;;;;;;4.70;3.03;;;;;;;;;;10238138;28;20117;-66
2021/05/14 12:01:50;;;;;;;9.30;3.70;;;;;;;;;;10240006;28;20099;-66
2021/05/14 12:06:51;;;;;;;7.67;3.00;;;;;;;;;;10220727;28;20343;-67
2021/05/14 12:11:48;;;;;;;5.40;2.75;;;;;;;;;;10245045;28;20046;-67
2021/05/14 12:16:46;;;;;;;5.33;3.40;;;;;;;;;;10238489;28;20067;-67
2021/05/14 12:21:44;;;;;;;8.87;3.23;;;;;;;;;;10235878;28;20100;-67
2021/05/14 12:26:41;;;;;;;2.77;1.70;;;;;;;;;;10238958;28;20048;-70
2021/05/14 12:31:39;;;;;;;3.55;2.92;;;;;;;;;;10222696;28;20044;-66
2021/05/14 12:36:38;;;;;;;6.33;2.67;;;;;;;;;;10243237;28;20036;-66
2021/05/14 12:41:35;;;;;;;;;;;;;;;;;;10241134;28;20038;-66
2021/05/14 12:46:33;;;;;;;5.32;2.58;;;;;;;;;;10231392;28;20401;-67
2021/05/14 12:51:30;;;;;;;5.93;2.93;;;;;;;;;;10241140;28;20343;-66
2021/05/14 12:56:28;;;;;;;5.57;2.93;;;;;;;;;;10245197;28;21034;-67
2021/05/14 13:01:26;;;;;;;7.22;2.95;;;;;;;;;;10240124;28;20629;-68
2021/05/14 13:06:28;;;;;;;7.05;3.13;;;;;;;;;;10236815;28;20305;-68
2021/05/14 13:11:25;;;;;;;4.70;3.15;;;;;;;;;;10237619;28;20555;-67
2021/05/14 13:16:23;;;;;;;6.43;2.93;;;;;;;;;;10243871;28;20060;-68
2021/05/14 13:21:21;;;;;;;2.47;1.33;;;;;;;;;;10243199;28;20057;-67
2021/05/14 13:26:19;;;;;;;5.07;2.08;;;;;;;;;;10241467;28;20041;-67
2021/05/14 13:31:20;;;;;;;3.50;2.23;;;;;;;;;;10229820;28;20042;-67
2021/05/14 13:36:18;;;;;;;2.92;1.73;;;;;;;;;;10253567;28;20514;-67
2021/05/14 13:41:16;;;;;;;2.97;2.33;;;;;;;;;;10248600;28;20042;-68
2021/05/14 13:46:13;;;;;;;12.90;4.23;;;;;;;;;;10244400;28;20724;-67
2021/05/14 13:51:11;;;;;;;4.10;3.07;;;;;;;;;;10251608;28;20038;-67
2021/05/14 13:56:08;;;;;;;6.70;2.87;;;;;;;;;;10247739;28;20103;-66
2021/05/14 14:01:06;;;;;;;3.50;2.43;;;;;;;;;;10245356;28;20565;-67
2021/05/14 14:06:04;;;;;;;11.80;1.27;;;;;;;;;;10245938;28;20419;-67
2021/05/14 14:11:02;;;;;;;9.02;3.35;;;;;;;;;;10247867;28;20038;-67
2021/05/14 14:15:59;;;;;;;6.03;3.20;;;;;;;;;;10229040;28;20088;-67
2021/05/14 14:20:56;;;;;;;3.70;2.33;;;;;;;;;;10236718;28;20049;-67
2021/05/14 14:25:54;;;;;;;1.50;1.27;;;;;;;;;;10241704;28;20033;-69
2021/05/14 14:30:51;;;;;;;8.40;1.90;;;;;;;;;;10238430;28;20581;-67
2021/05/14 14:35:50;;;;;;;3.80;2.50;;;;;;;;;;10242482;28;20043;-67
2021/05/14 14:40:47;;;;;;;6.10;3.30;;;;;;;;;;10240775;28;20132;-67
2021/05/14 14:45:46;;;;;;;2.30;1.30;;;;;;;;;;10238537;28;20034;-67
2021/05/14 14:50:44;;;;;;;2.42;2.22;;;;;;;;;;10237671;28;20033;-67
2021/05/14 14:55:41;;;;;;;7.47;2.03;;;;;;;;;;10245569;28;20045;-67
2021/05/14 15:00:38;;;;;;;7.70;2.40;;;;;;;;;;10236393;28;20085;-67
2021/05/14 15:05:36;;;;;;;5.07;1.67;;;;;;;;;;10227786;28;20140;-66
2021/05/14 15:10:34;;;;;;;2.53;2.23;;;;;;;;;;10239862;28;20514;-66
2021/05/14 15:15:31;;;;;;;5.07;2.40;;;;;;;;;;10232825;28;20064;-68
2021/05/14 15:20:29;;;;;;;3.77;2.60;;;;;;;;;;10242270;28;20042;-67
2021/05/14 15:25:27;;;;;;;10.30;3.17;;;;;;;;;;10247590;28;20328;-66
2021/05/14 15:30:24;;;;;;;5.17;2.57;;;;;;;;;;10244728;28;20045;-67
2021/05/14 15:35:22;;;;;;;7.47;3.23;;;;;;;;;;10244921;28;20308;-68
2021/05/14 15:40:19;;;;;;;8.40;3.63;;;;;;;;;;10229047;28;20037;-67
2021/05/14 15:45:17;;;;;;;7.67;3.60;;;;;;;;;;10243597;28;20195;-68
2021/05/14 15:50:16;;;;;;;5.47;3.57;;;;;;;;;;10242570;28;20026;-67
2021/05/14 15:55:13;;;;;;;4.43;2.97;;;;;;;;;;10241847;28;20035;-68
2021/05/14 16:00:11;;;;;;;5.87;3.73;;;;;;;;;;10247155;28;20049;-68
2021/05/14 16:05:13;;;;;;;8.02;3.83;;;;;;;;;;10215190;28;20068;-68
2021/05/14 16:10:10;;;;;;;6.13;3.27;;;;;;;;;;10246900;28;20573;-68
2021/05/14 16:15:09;;;;;;;5.43;3.93;;;;;;;;;;10242164;28;20032;-68
2021/05/14 16:20:08;;;;;;;7.70;3.92;;;;;;;;;;10244591;28;20069;-67
2021/05/14 16:25:05;;;;;;;;;;;;;;;;;;10227459;28;20046;-68
2021/05/14 16:30:03;;;;;;;8.03;4.20;;;;;;;;;;10245123;28;19918;-68
2021/05/14 16:35:01;;;;;;;7.17;3.27;;;;;;;;;;10246135;28;20055;-68
2021/05/14 16:39:59;;;;;;;10.20;4.18;;;;;;;;;;10230105;28;20034;-68
2021/05/14 16:44:56;;;;;;;5.10;3.20;;;;;;;;;;10224845;28;20426;-67
2021/05/14 16:49:54;;;;;;;7.17;3.20;;;;;;;;;;10231538;28;20022;-68
2021/05/14 16:54:51;;;;;;;8.77;4.23;;;;;;;;;;10230633;28;20264;-66
2021/05/14 16:59:49;;;;;;;5.57;3.37;;;;;;;;;;10251996;28;20380;-67
2021/05/14 17:04:46;;;;;;;8.50;3.87;;;;;;;;;;10255873;28;20030;-68
2021/05/14 17:09:43;;;;;;;9.97;3.50;;;;;;;;;;10232257;28;20021;-65
2021/05/14 17:14:41;;;;;;;8.00;3.80;;;;;;;;;;10252968;28;20041;-65
2021/05/14 17:19:41;;;;;;;5.83;3.17;;;;;;;;;;10250763;28;20545;-66
2021/05/14 17:24:41;;;;;;;8.30;3.70;;;;;;;;;;10254993;28;20044;-69
2021/05/14 17:29:38;;;;;;;6.88;3.75;;;;;;;;;;10252628;28;20034;-65
2021/05/14 17:34:35;;;;;;;9.57;4.63;;;;;;;;;;10246251;28;20049;-66
2021/05/14 17:39:33;;;;;;;6.30;3.53;;;;;;;;;;10230314;28;20053;-66
2021/05/14 17:44:30;;;;;;;10.03;4.30;;;;;;;;;;10248372;28;20573;-66
2021/05/14 17:49:28;;;;;;;5.10;3.97;;;;;;;;;;10251529;28;20038;-65
2021/05/14 17:54:25;;;;;;;10.67;4.50;;;;;;;;;;10251740;28;20490;-65
2021/05/14 17:59:23;;;;;;;8.67;3.80;;;;;;;;;;10240261;28;20092;-66
2021/05/14 18:04:20;;;;;;;4.30;3.00;;;;;;;;;;10226827;28;20147;-65
2021/05/14 18:09:18;;;;;;;8.33;4.27;;;;;;;;;;10247304;28;20349;-66
2021/05/14 18:14:15;;;;;;;6.53;3.73;;;;;;;;;;10249422;28;20474;-65
2021/05/14 18:24:10;;;;;;;5.37;3.33;;;;;;;;;;10231831;28;20041;-65
2021/05/14 18:29:07;;;;;;;9.77;4.20;;;;;;;;;;10246799;28;20199;-65
2021/05/14 18:34:08;;;;;;;5.47;4.03;;;;;;;;;;10247621;28;20117;-66
2021/05/14 18:39:06;;;;;;;5.47;3.78;;;;;;;;;;10249108;28;20040;-66
2021/05/14 18:44:04;;;;;;;10.13;3.73;;;;;;;;;;10247962;28;20600;-65
2021/05/14 18:49:02;;;;;;;7.43;3.80;;;;;;;;;;10246401;28;20771;-65
2021/05/14 18:53:59;;;;;;;6.53;3.77;;;;;;;;;;10241347;28;20037;-66
2021/05/14 18:58:57;;;;;;;6.30;4.10;;;;;;;;;;10253376;28;20475;-64
2021/05/14 19:03:54;;;;;;;10.03;4.20;;;;;;;;;;10250849;28;20125;-64
2021/05/14 19:08:52;;;;;;;7.13;3.97;;;;;;;;;;10240354;28;20030;-66
2021/05/14 19:13:49;;;;;;;10.17;4.60;;;;;;;;;;10247604;28;20140;-67
2021/05/14 19:18:47;;;;;;;7.73;4.73;;;;;;;;;;10250446;28;20026;-66
2021/05/14 19:49:59;;;;;;;12.02;4.85;;;;;;;;;;10245001;28;20384;-68
2021/05/14 19:54:56;;;;;;;7.77;4.40;;;;;;;;;;10247615;28;20029;-67
2021/05/14 19:59:53;;;;;;;6.53;4.53;;;;;;;;;;10242983;28;20033;-67
2021/05/14 20:04:51;;;;;;;9.77;4.03;;;;;;;;;;10241106;28;20100;-66
2021/05/14 20:09:48;;;;;;;11.40;4.37;;;;;;;;;;10230524;28;20030;-67
2021/05/14 20:14:46;;;;;;;10.20;3.70;;;;;;;;;;10242667;28;20087;-68
2021/05/14 20:19:43;;;;;;;10.23;4.30;;;;;;;;;;10242438;28;20041;-68
2021/05/14 20:24:41;;;;;;;8.00;4.10;;;;;;;;;;10241884;28;20025;-67
2021/05/14 20:29:38;;;;;;;5.37;3.30;;;;;;;;;;10239876;28;20034;-66
2021/05/14 20:34:36;;;;;;;6.53;3.77;;;;;;;;;;10229522;28;20034;-67
2021/05/14 20:39:40;;;;;;;8.57;4.10;;;;;;;;;;10248097;28;20026;-67
2021/05/14 20:44:38;;;;;;;7.35;3.50;;;;;;;;;;10246982;28;20407;-68
2021/05/14 20:49:35;;;;;;;8.68;3.65;;;;;;;;;;10235647;28;20100;-66
2021/05/14 20:54:33;;;;;;;6.97;3.60;;;;;;;;;;10221243;28;20072;-66
2021/05/14 20:59:30;;;;;;;4.80;3.07;;;;;;;;;;10222209;28;20048;-67
2021/05/14 21:04:28;;;;;;;7.03;3.40;;;;;;;;;;10232778;28;20053;-66
2021/05/14 21:09:25;;;;;;;7.67;3.70;;;;;;;;;;10225237;28;20129;-68
2021/05/14 21:14:22;;;;;;;7.93;3.70;;;;;;;;;;10221548;28;20034;-66
2021/05/14 21:19:23;;;;;;;6.53;3.67;;;;;;;;;;10238589;28;20038;-68
2021/05/14 21:24:21;;;;;;;6.70;4.40;;;;;;;;;;10240267;28;20040;-67
2021/05/14 21:29:19;;;;;;;13.77;5.10;;;;;;;;;;10252197;28;20341;-66
2021/05/14 21:34:17;;;;;;;;;;;;;;;;;;10252015;28;20034;-67
2021/05/14 21:39:14;;;;;;;12.55;5.75;;;;;;;;;;10236700;28;19914;-67
2021/05/14 21:44:13;;;;;;;14.20;5.87;;;;;;;;;;10236384;28;20052;-66
2021/05/14 21:49:10;;;;;;;11.30;6.55;;;;;;;;;;10258497;28;20083;-66
2021/05/14 21:54:07;;;;;;;9.40;6.23;;;;;;;;;;10252727;28;20044;-66
2021/05/14 21:59:05;;;;;;;10.97;5.47;;;;;;;;;;10253900;28;20129;-66
2021/05/14 22:04:02;;;;;;;10.87;6.53;;;;;;;;;;10249287;28;20060;-66
2021/05/14 22:09:00;;;;;;;13.97;6.47;;;;;;;;;;10254953;28;20030;-67
2021/05/14 22:13:57;;;;;;;7.20;3.70;;;;;;;;;;10239647;28;20406;-66
2021/05/14 22:18:55;;;;;;;10.93;3.70;;;;;;;;;;10222855;28;20532;-66
2021/05/14 22:23:53;;;;;;;12.57;6.43;;;;;;;;;;10254268;28;20034;-66
2021/05/14 22:28:50;;;;;;;13.07;6.35;;;;;;;;;;10252171;28;20089;-65
2021/05/14 22:33:48;;;;;;;12.97;5.93;;;;;;;;;;10243474;28;20085;-66
2021/05/14 22:38:45;;;;;;;7.70;2.83;;;;;;;;;;10238663;28;20038;-66
2021/05/14 22:43:42;;;;;;;3.67;2.07;;;;;;;;;;10257197;28;20038;-66
2021/05/14 22:48:40;;;;;;;5.07;2.63;;;;;;;;;;10240868;28;20088;-67
2021/05/14 22:53:38;;;;;;;5.17;2.20;;;;;;;;;;10230832;28;20038;-67
2021/05/14 22:58:37;;;;;;;2.15;1.80;;;;;;;;;;10223621;28;20030;-66
2021/05/14 23:03:34;;;;;;;4.63;3.17;;;;;;;;;;10245467;28;20037;-66
2021/05/14 23:08:32;;;;;;;6.20;3.33;;;;;;;;;;10251386;28;20569;-65
2021/05/14 23:13:29;;;;;;;11.00;3.83;;;;;;;;;;10244155;28;20065;-66
2021/05/14 23:18:27;;;;;;;12.80;6.70;;;;;;;;;;10232890;28;20034;-67
2021/05/14 23:23:24;;;;;;;9.83;2.10;;;;;;;;;;10232615;28;20046;-65
2021/05/14 23:28:21;;;;;;;3.43;1.87;;;;;;;;;;10237091;28;20077;-66
2021/05/14 23:33:19;;;;;;;6.43;3.33;;;;;;;;;;10238414;28;20045;-65
2021/05/14 23:38:16;;;;;;;5.67;2.67;;;;;;;;;;10210775;28;20114;-67
2021/05/14 23:43:14;;;;;;;8.17;3.27;;;;;;;;;;10232936;28;20481;-66
2021/05/14 23:48:12;;;;;;;8.30;5.13;;;;;;;;;;10218096;28;20068;-68
2021/05/14 23:53:10;;;;;;;;;;;;;;;;;;10219454;28;20250;-66
2021/05/14 23:58:07;;;;;;;9.77;3.13;;;;;;;;;;10256768;28;20294;-65
